Airfield :
LOGIN :

Register | Disclaimer

   EN    FR    IT 

 










Legend :    VFR   Marginal VFR   IFR   Intensive IFR   Very Intensive IFR
Visi :
Ceiling :
>= 8 km
>= 3000ft
5 to 8 km
1000 to 3000 ft
1500m to 5 km
500 to 1000 ft
800 to 1500m
200 to 500 ft
< 800m
< 200 ft
Symbols :   Thunderstorms  Fog  Heavy snow  Heavy precipitations  Wind > 20 kt
SIGMETs :     Misc.  Thunderstorms  Icing  Turbulence  Mountain Waves  Volcanic Ashes






- Airport Elevation : 156 ft
- IATA code : OMO


LQMO - Mostar

CURRENT METAR :
  • 052000Z 03019G36KT 360V080 9999 FEW045 SCT070 01/M12 Q1029

EXPIRED METARs :
  • 051930Z 03014G25KT 9999 FEW045 SCT070 01/M13 Q1029
  • 051900Z 04016KT 350V070 9999 FEW045 SCT070 01/M13 Q1029
  • 051830Z 01018KT 9999 FEW045 SCT065 01/M13 Q1029
  • 051800Z 36014KT 9999 FEW045 SCT070 01/M12 Q1029
  • 051730Z 35010KT 310V030 9999 FEW045 SCT075 01/M12 Q1029

TAF TAF LQMO
Valid from the 05 at 18:00 until the 06 at 18:00 UTC


051700Z 0518/0618 35014KT 9999 FEW045 TX04/0613Z TNM03/0606Z
TEMPO 0518/0618 02017G35KT
PROB30
TEMPO 0600/0612 02030G45KT



MET'MAP, your aeronautical weather chart ! - Copyright ORBIFLY December 2007 - Disclaimer

ORBIFLY MET'MAP TEAM :

Programming & Development : Alexandra Zaïnal
Original concept : Baudouin d'Aumeries
Technical & hardware support : Manuel Goepfert
Assistance : Marc-Olivier Méhu




SOURCES & CREDITS :

   NOAA